sensor_id;sensor_type;location;lat;lon;timestamp;P1;durP1;ratioP1;P2;durP2;ratioP2
15293;SDS011;74171;52.534;13.436;2023-11-19T00:00:26;11.10;;;7.43;;
15293;SDS011;74171;52.534;13.436;2023-11-19T00:02:54;9.40;;;7.00;;
15293;SDS011;74171;52.534;13.436;2023-11-19T00:05:25;9.27;;;7.10;;
15293;SDS011;74171;52.534;13.436;2023-11-19T00:07:54;12.83;;;8.37;;
15293;SDS011;74171;52.534;13.436;2023-11-19T00:10:25;8.03;;;6.80;;
15293;SDS011;74171;52.534;13.436;2023-11-19T00:12:54;9.73;;;7.43;;
15293;SDS011;74171;52.534;13.436;2023-11-19T00:15:23;8.53;;;6.37;;
15293;SDS011;74171;52.534;13.436;2023-11-19T00:17:52;8.20;;;6.70;;
15293;SDS011;74171;52.534;13.436;2023-11-19T00:20:26;8.70;;;6.57;;
15293;SDS011;74171;52.534;13.436;2023-11-19T00:22:55;9.80;;;7.07;;
15293;SDS011;74171;52.534;13.436;2023-11-19T00:25:25;10.40;;;7.33;;
15293;SDS011;74171;52.534;13.436;2023-11-19T00:27:54;10.17;;;7.67;;
15293;SDS011;74171;52.534;13.436;2023-11-19T00:30:23;10.57;;;7.07;;
15293;SDS011;74171;52.534;13.436;2023-11-19T00:32:52;9.33;;;6.60;;
15293;SDS011;74171;52.534;13.436;2023-11-19T00:35:22;8.87;;;7.03;;
15293;SDS011;74171;52.534;13.436;2023-11-19T00:37:50;9.33;;;7.20;;
15293;SDS011;74171;52.534;13.436;2023-11-19T00:40:21;8.30;;;6.90;;
15293;SDS011;74171;52.534;13.436;2023-11-19T00:43:00;8.60;;;6.60;;
15293;SDS011;74171;52.534;13.436;2023-11-19T00:45:28;9.97;;;7.00;;
15293;SDS011;74171;52.534;13.436;2023-11-19T00:47:57;9.20;;;6.37;;
15293;SDS011;74171;52.534;13.436;2023-11-19T00:50:26;8.13;;;7.07;;
15293;SDS011;74171;52.534;13.436;2023-11-19T00:52:56;8.27;;;5.73;;
15293;SDS011;74171;52.534;13.436;2023-11-19T00:55:24;7.70;;;6.37;;
15293;SDS011;74171;52.534;13.436;2023-11-19T00:57:54;7.90;;;6.40;;
15293;SDS011;74171;52.534;13.436;2023-11-19T01:00:25;9.77;;;6.93;;
15293;SDS011;74171;52.534;13.436;2023-11-19T01:02:54;7.60;;;6.23;;
15293;SDS011;74171;52.534;13.436;2023-11-19T01:05:22;7.30;;;6.23;;
15293;SDS011;74171;52.534;13.436;2023-11-19T01:07:51;9.93;;;6.77;;
15293;SDS011;74171;52.534;13.436;2023-11-19T01:10:21;6.60;;;5.90;;
15293;SDS011;74171;52.534;13.436;2023-11-19T01:12:49;8.27;;;6.80;;
15293;SDS011;74171;52.534;13.436;2023-11-19T01:15:22;8.83;;;6.27;;
15293;SDS011;74171;52.534;13.436;2023-11-19T01:17:50;9.97;;;5.83;;
15293;SDS011;74171;52.534;13.436;2023-11-19T01:20:19;11.30;;;6.60;;
15293;SDS011;74171;52.534;13.436;2023-11-19T01:22:48;7.97;;;5.80;;
15293;SDS011;74171;52.534;13.436;2023-11-19T01:25:16;7.87;;;5.27;;
15293;SDS011;74171;52.534;13.436;2023-11-19T01:27:46;7.03;;;6.33;;
15293;SDS011;74171;52.534;13.436;2023-11-19T01:30:15;6.87;;;5.33;;
15293;SDS011;74171;52.534;13.436;2023-11-19T01:32:45;8.23;;;5.73;;
15293;SDS011;74171;52.534;13.436;2023-11-19T01:35:14;6.30;;;5.20;;
15293;SDS011;74171;52.534;13.436;2023-11-19T01:37:42;6.17;;;4.97;;
15293;SDS011;74171;52.534;13.436;2023-11-19T01:40:11;6.73;;;6.03;;
15293;SDS011;74171;52.534;13.436;2023-11-19T01:42:40;7.60;;;5.73;;
15293;SDS011;74171;52.534;13.436;2023-11-19T01:45:08;6.27;;;5.30;;
15293;SDS011;74171;52.534;13.436;2023-11-19T01:47:52;6.63;;;5.47;;
15293;SDS011;74171;52.534;13.436;2023-11-19T01:50:21;6.47;;;5.33;;
15293;SDS011;74171;52.534;13.436;2023-11-19T01:52:50;6.40;;;5.50;;
15293;SDS011;74171;52.534;13.436;2023-11-19T01:55:20;5.57;;;5.03;;
15293;SDS011;74171;52.534;13.436;2023-11-19T01:57:50;6.87;;;5.50;;
15293;SDS011;74171;52.534;13.436;2023-11-19T02:00:19;7.10;;;5.83;;
15293;SDS011;74171;52.534;13.436;2023-11-19T02:02:48;6.80;;;5.57;;
15293;SDS011;74171;52.534;13.436;2023-11-19T02:05:20;8.93;;;5.80;;
15293;SDS011;74171;52.534;13.436;2023-11-19T02:07:49;8.63;;;6.20;;
15293;SDS011;74171;52.534;13.436;2023-11-19T02:10:18;9.33;;;6.13;;
15293;SDS011;74171;52.534;13.436;2023-11-19T02:12:46;8.07;;;5.83;;
15293;SDS011;74171;52.534;13.436;2023-11-19T02:15:15;7.83;;;6.07;;
15293;SDS011;74171;52.534;13.436;2023-11-19T02:17:45;7.00;;;5.47;;
15293;SDS011;74171;52.534;13.436;2023-11-19T02:20:14;8.70;;;6.10;;
15293;SDS011;74171;52.534;13.436;2023-11-19T02:22:44;9.20;;;6.17;;
15293;SDS011;74171;52.534;13.436;2023-11-19T02:25:15;12.37;;;5.27;;
15293;SDS011;74171;52.534;13.436;2023-11-19T02:27:51;6.73;;;5.93;;
15293;SDS011;74171;52.534;13.436;2023-11-19T02:30:23;8.57;;;6.10;;
15293;SDS011;74171;52.534;13.436;2023-11-19T02:32:53;7.00;;;5.23;;
15293;SDS011;74171;52.534;13.436;2023-11-19T02:35:24;7.57;;;5.57;;
15293;SDS011;74171;52.534;13.436;2023-11-19T02:37:54;6.47;;;5.37;;
15293;SDS011;74171;52.534;13.436;2023-11-19T02:40:22;7.30;;;5.77;;
15293;SDS011;74171;52.534;13.436;2023-11-19T02:42:56;7.63;;;5.67;;
15293;SDS011;74171;52.534;13.436;2023-11-19T02:45:25;6.13;;;5.33;;
15293;SDS011;74171;52.534;13.436;2023-11-19T02:47:54;9.03;;;6.37;;
15293;SDS011;74171;52.534;13.436;2023-11-19T02:50:22;6.77;;;5.60;;
15293;SDS011;74171;52.534;13.436;2023-11-19T02:52:53;7.37;;;5.07;;
15293;SDS011;74171;52.534;13.436;2023-11-19T02:55:23;8.00;;;5.60;;
15293;SDS011;74171;52.534;13.436;2023-11-19T02:57:56;6.20;;;5.47;;
15293;SDS011;74171;52.534;13.436;2023-11-19T03:00:26;6.83;;;4.97;;
15293;SDS011;74171;52.534;13.436;2023-11-19T03:03:02;4.87;;;4.37;;
15293;SDS011;74171;52.534;13.436;2023-11-19T03:05:45;6.00;;;4.97;;
15293;SDS011;74171;52.534;13.436;2023-11-19T03:08:14;5.50;;;4.33;;
15293;SDS011;74171;52.534;13.436;2023-11-19T03:10:46;7.73;;;5.80;;
15293;SDS011;74171;52.534;13.436;2023-11-19T03:13:15;4.87;;;4.37;;
15293;SDS011;74171;52.534;13.436;2023-11-19T03:15:44;5.37;;;4.63;;
15293;SDS011;74171;52.534;13.436;2023-11-19T03:18:13;5.57;;;4.70;;
15293;SDS011;74171;52.534;13.436;2023-11-19T03:20:41;5.77;;;4.57;;
15293;SDS011;74171;52.534;13.436;2023-11-19T03:23:10;6.23;;;4.27;;
15293;SDS011;74171;52.534;13.436;2023-11-19T03:25:38;6.37;;;4.30;;
15293;SDS011;74171;52.534;13.436;2023-11-19T03:28:07;5.23;;;4.33;;
15293;SDS011;74171;52.534;13.436;2023-11-19T03:30:36;4.50;;;4.10;;
15293;SDS011;74171;52.534;13.436;2023-11-19T03:33:05;4.67;;;4.17;;
15293;SDS011;74171;52.534;13.436;2023-11-19T03:35:33;5.73;;;4.57;;
15293;SDS011;74171;52.534;13.436;2023-11-19T03:38:01;4.90;;;4.40;;
15293;SDS011;74171;52.534;13.436;2023-11-19T03:40:29;5.63;;;4.63;;
15293;SDS011;74171;52.534;13.436;2023-11-19T03:42:57;5.30;;;4.30;;
15293;SDS011;74171;52.534;13.436;2023-11-19T03:45:26;10.37;;;5.33;;
15293;SDS011;74171;52.534;13.436;2023-11-19T03:47:55;7.30;;;5.07;;
15293;SDS011;74171;52.534;13.436;2023-11-19T03:50:24;5.93;;;4.63;;
15293;SDS011;74171;52.534;13.436;2023-11-19T03:52:52;7.77;;;5.43;;
15293;SDS011;74171;52.534;13.436;2023-11-19T03:55:21;9.23;;;5.27;;
15293;SDS011;74171;52.534;13.436;2023-11-19T03:57:49;7.50;;;6.03;;
15293;SDS011;74171;52.534;13.436;2023-11-19T04:00:17;6.90;;;5.57;;
15293;SDS011;74171;52.534;13.436;2023-11-19T04:02:47;6.53;;;5.30;;
15293;SDS011;74171;52.534;13.436;2023-11-19T04:05:17;7.93;;;5.87;;
15293;SDS011;74171;52.534;13.436;2023-11-19T04:07:46;8.10;;;6.10;;
15293;SDS011;74171;52.534;13.436;2023-11-19T04:10:15;7.47;;;5.73;;
15293;SDS011;74171;52.534;13.436;2023-11-19T04:12:45;7.00;;;6.00;;
15293;SDS011;74171;52.534;13.436;2023-11-19T04:15:14;7.70;;;6.37;;
15293;SDS011;74171;52.534;13.436;2023-11-19T04:17:42;9.20;;;6.90;;
15293;SDS011;74171;52.534;13.436;2023-11-19T04:20:10;7.07;;;6.37;;
15293;SDS011;74171;52.534;13.436;2023-11-19T04:22:42;7.77;;;6.60;;
15293;SDS011;74171;52.534;13.436;2023-11-19T04:25:10;7.53;;;6.20;;
15293;SDS011;74171;52.534;13.436;2023-11-19T04:27:40;9.70;;;7.30;;
15293;SDS011;74171;52.534;13.436;2023-11-19T04:30:08;10.13;;;6.87;;
15293;SDS011;74171;52.534;13.436;2023-11-19T04:32:38;7.53;;;6.17;;
15293;SDS011;74171;52.534;13.436;2023-11-19T04:35:07;8.53;;;6.03;;
15293;SDS011;74171;52.534;13.436;2023-11-19T04:37:37;9.23;;;7.27;;
15293;SDS011;74171;52.534;13.436;2023-11-19T04:40:08;8.87;;;6.57;;
15293;SDS011;74171;52.534;13.436;2023-11-19T04:42:36;9.07;;;6.70;;
15293;SDS011;74171;52.534;13.436;2023-11-19T04:45:07;8.40;;;7.20;;
15293;SDS011;74171;52.534;13.436;2023-11-19T04:47:37;12.60;;;7.60;;
15293;SDS011;74171;52.534;13.436;2023-11-19T04:50:05;11.87;;;6.90;;
15293;SDS011;74171;52.534;13.436;2023-11-19T04:52:37;9.23;;;6.53;;
15293;SDS011;74171;52.534;13.436;2023-11-19T04:55:10;9.97;;;7.23;;
15293;SDS011;74171;52.534;13.436;2023-11-19T04:57:41;9.50;;;6.67;;
15293;SDS011;74171;52.534;13.436;2023-11-19T05:00:10;9.70;;;7.57;;
15293;SDS011;74171;52.534;13.436;2023-11-19T05:02:43;9.63;;;7.37;;
15293;SDS011;74171;52.534;13.436;2023-11-19T05:05:11;9.93;;;7.60;;
15293;SDS011;74171;52.534;13.436;2023-11-19T05:07:40;10.80;;;7.17;;
15293;SDS011;74171;52.534;13.436;2023-11-19T05:10:09;9.43;;;7.60;;
15293;SDS011;74171;52.534;13.436;2023-11-19T05:12:38;10.93;;;8.20;;
15293;SDS011;74171;52.534;13.436;2023-11-19T05:15:08;10.80;;;7.60;;
15293;SDS011;74171;52.534;13.436;2023-11-19T05:17:38;9.73;;;7.23;;
15293;SDS011;74171;52.534;13.436;2023-11-19T05:20:07;9.33;;;8.00;;
15293;SDS011;74171;52.534;13.436;2023-11-19T05:22:40;9.60;;;7.63;;
15293;SDS011;74171;52.534;13.436;2023-11-19T05:25:10;9.27;;;8.00;;
15293;SDS011;74171;52.534;13.436;2023-11-19T05:27:38;13.73;;;8.70;;
15293;SDS011;74171;52.534;13.436;2023-11-19T05:30:07;11.57;;;8.40;;
15293;SDS011;74171;52.534;13.436;2023-11-19T05:32:37;10.77;;;7.83;;
15293;SDS011;74171;52.534;13.436;2023-11-19T05:35:06;10.77;;;8.43;;
15293;SDS011;74171;52.534;13.436;2023-11-19T05:37:35;13.23;;;8.57;;
15293;SDS011;74171;52.534;13.436;2023-11-19T05:40:05;10.90;;;8.03;;
15293;SDS011;74171;52.534;13.436;2023-11-19T05:42:43;11.53;;;8.73;;
15293;SDS011;74171;52.534;13.436;2023-11-19T05:45:11;12.53;;;8.90;;
15293;SDS011;74171;52.534;13.436;2023-11-19T05:47:40;11.27;;;7.97;;
15293;SDS011;74171;52.534;13.436;2023-11-19T05:50:09;11.03;;;8.07;;
15293;SDS011;74171;52.534;13.436;2023-11-19T05:52:38;9.73;;;7.00;;
15293;SDS011;74171;52.534;13.436;2023-11-19T05:55:06;9.47;;;7.67;;
15293;SDS011;74171;52.534;13.436;2023-11-19T05:57:36;10.97;;;7.50;;
15293;SDS011;74171;52.534;13.436;2023-11-19T06:00:16;10.20;;;7.60;;
15293;SDS011;74171;52.534;13.436;2023-11-19T06:02:45;9.70;;;8.23;;
15293;SDS011;74171;52.534;13.436;2023-11-19T06:05:14;9.87;;;6.93;;
15293;SDS011;74171;52.534;13.436;2023-11-19T06:07:42;7.50;;;6.53;;
15293;SDS011;74171;52.534;13.436;2023-11-19T06:10:10;7.87;;;6.83;;
15293;SDS011;74171;52.534;13.436;2023-11-19T06:12:40;9.87;;;7.43;;
15293;SDS011;74171;52.534;13.436;2023-11-19T06:15:09;9.40;;;7.00;;
15293;SDS011;74171;52.534;13.436;2023-11-19T06:17:39;9.10;;;7.23;;
15293;SDS011;74171;52.534;13.436;2023-11-19T06:20:08;11.73;;;8.20;;
15293;SDS011;74171;52.534;13.436;2023-11-19T06:22:38;9.43;;;7.93;;
15293;SDS011;74171;52.534;13.436;2023-11-19T06:25:09;10.43;;;8.23;;
15293;SDS011;74171;52.534;13.436;2023-11-19T06:27:39;8.20;;;6.80;;
15293;SDS011;74171;52.534;13.436;2023-11-19T06:30:08;10.00;;;7.40;;
15293;SDS011;74171;52.534;13.436;2023-11-19T06:32:40;8.27;;;6.93;;
15293;SDS011;74171;52.534;13.436;2023-11-19T06:35:09;11.87;;;7.50;;
15293;SDS011;74171;52.534;13.436;2023-11-19T06:37:38;9.27;;;7.03;;
15293;SDS011;74171;52.534;13.436;2023-11-19T06:40:07;10.87;;;7.83;;
15293;SDS011;74171;52.534;13.436;2023-11-19T06:42:37;7.17;;;6.47;;
15293;SDS011;74171;52.534;13.436;2023-11-19T06:45:14;7.50;;;6.53;;
15293;SDS011;74171;52.534;13.436;2023-11-19T06:48:59;8.80;;;7.10;;
15293;SDS011;74171;52.534;13.436;2023-11-19T06:51:28;6.70;;;6.00;;
15293;SDS011;74171;52.534;13.436;2023-11-19T06:53:56;8.03;;;6.10;;
15293;SDS011;74171;52.534;13.436;2023-11-19T06:56:25;7.37;;;6.37;;
15293;SDS011;74171;52.534;13.436;2023-11-19T06:58:54;7.20;;;6.10;;
15293;SDS011;74171;52.534;13.436;2023-11-19T07:01:23;6.87;;;6.17;;
15293;SDS011;74171;52.534;13.436;2023-11-19T07:03:51;6.93;;;5.77;;
15293;SDS011;74171;52.534;13.436;2023-11-19T07:06:22;6.57;;;5.73;;
15293;SDS011;74171;52.534;13.436;2023-11-19T07:08:57;8.70;;;6.17;;
15293;SDS011;74171;52.534;13.436;2023-11-19T07:11:39;9.33;;;5.83;;
15293;SDS011;74171;52.534;13.436;2023-11-19T07:14:13;7.40;;;6.27;;
15293;SDS011;74171;52.534;13.436;2023-11-19T07:16:43;6.30;;;5.53;;
15293;SDS011;74171;52.534;13.436;2023-11-19T07:19:12;6.53;;;5.50;;
15293;SDS011;74171;52.534;13.436;2023-11-19T07:21:54;6.67;;;5.93;;
15293;SDS011;74171;52.534;13.436;2023-11-19T07:24:24;7.03;;;6.10;;
15293;SDS011;74171;52.534;13.436;2023-11-19T07:26:55;7.60;;;6.07;;
15293;SDS011;74171;52.534;13.436;2023-11-19T07:29:25;8.20;;;6.60;;
15293;SDS011;74171;52.534;13.436;2023-11-19T07:31:56;9.10;;;6.57;;
15293;SDS011;74171;52.534;13.436;2023-11-19T07:34:25;7.90;;;6.57;;
15293;SDS011;74171;52.534;13.436;2023-11-19T07:36:59;8.90;;;6.30;;
15293;SDS011;74171;52.534;13.436;2023-11-19T07:43:22;7.87;;;5.77;;
15293;SDS011;74171;52.534;13.436;2023-11-19T07:45:57;6.77;;;6.07;;
15293;SDS011;74171;52.534;13.436;2023-11-19T07:48:40;6.47;;;5.77;;
15293;SDS011;74171;52.534;13.436;2023-11-19T07:51:10;7.07;;;6.37;;
15293;SDS011;74171;52.534;13.436;2023-11-19T07:53:45;7.00;;;5.97;;
15293;SDS011;74171;52.534;13.436;2023-11-19T07:56:17;7.10;;;5.53;;
15293;SDS011;74171;52.534;13.436;2023-11-19T07:58:50;6.43;;;5.67;;
15293;SDS011;74171;52.534;13.436;2023-11-19T08:01:19;7.97;;;6.10;;
15293;SDS011;74171;52.534;13.436;2023-11-19T08:03:50;8.10;;;6.47;;
15293;SDS011;74171;52.534;13.436;2023-11-19T08:06:22;8.23;;;6.80;;
15293;SDS011;74171;52.534;13.436;2023-11-19T09:00:34;8.47;;;7.43;;
15293;SDS011;74171;52.534;13.436;2023-11-19T09:03:03;9.00;;;7.10;;
15293;SDS011;74171;52.534;13.436;2023-11-19T09:05:35;9.97;;;7.30;;
15293;SDS011;74171;52.534;13.436;2023-11-19T09:08:06;9.10;;;6.77;;
15293;SDS011;74171;52.534;13.436;2023-11-19T09:10:35;7.37;;;6.23;;
15293;SDS011;74171;52.534;13.436;2023-11-19T09:13:04;7.53;;;6.57;;
15293;SDS011;74171;52.534;13.436;2023-11-19T09:15:33;7.60;;;6.53;;
15293;SDS011;74171;52.534;13.436;2023-11-19T09:18:01;8.13;;;6.20;;
15293;SDS011;74171;52.534;13.436;2023-11-19T09:20:31;8.03;;;6.47;;
15293;SDS011;74171;52.534;13.436;2023-11-19T09:23:05;8.30;;;6.80;;
15293;SDS011;74171;52.534;13.436;2023-11-19T09:54:10;12.77;;;6.13;;
15293;SDS011;74171;52.534;13.436;2023-11-19T11:54:30;12.03;;;4.10;;
15293;SDS011;74171;52.534;13.436;2023-11-19T11:57:02;12.97;;;4.63;;
15293;SDS011;74171;52.534;13.436;2023-11-19T11:59:50;9.73;;;3.57;;
15293;SDS011;74171;52.534;13.436;2023-11-19T12:02:22;17.03;;;5.80;;
15293;SDS011;74171;52.534;13.436;2023-11-19T12:04:57;18.13;;;6.50;;
15293;SDS011;74171;52.534;13.436;2023-11-19T12:08:29;15.73;;;4.80;;
15293;SDS011;74171;52.534;13.436;2023-11-19T12:11:37;22.00;;;4.40;;
15293;SDS011;74171;52.534;13.436;2023-11-19T12:17:43;13.87;;;4.77;;
15293;SDS011;74171;52.534;13.436;2023-11-19T12:23:57;18.67;;;5.43;;
15293;SDS011;74171;52.534;13.436;2023-11-19T14:33:24;22.07;;;6.17;;
15293;SDS011;74171;52.534;13.436;2023-11-19T21:06:05;16.77;;;5.37;;
15293;SDS011;74171;52.534;13.436;2023-11-19T21:08:42;14.20;;;5.23;;
15293;SDS011;74171;52.534;13.436;2023-11-19T21:11:11;20.00;;;5.03;;
15293;SDS011;74171;52.534;13.436;2023-11-19T21:13:58;15.27;;;5.10;;
15293;SDS011;74171;52.534;13.436;2023-11-19T21:16:49;17.07;;;5.10;;
15293;SDS011;74171;52.534;13.436;2023-11-19T22:39:33;12.97;;;5.23;;
15293;SDS011;74171;52.534;13.436;2023-11-19T22:42:30;15.53;;;4.17;;
15293;SDS011;74171;52.534;13.436;2023-11-19T22:45:30;15.97;;;4.70;;
15293;SDS011;74171;52.534;13.436;2023-11-19T22:52:11;14.77;;;4.83;;
